sensor_id;sensor_type;location;lat;lon;timestamp;P1;durP1;ratioP1;P2;durP2;ratioP2
64871;SDS011;51351;51.450;6.614;2023-07-28T00:02:13;4.55;;;2.28;;
64871;SDS011;51351;51.450;6.614;2023-07-28T00:04:39;4.85;;;2.15;;
64871;SDS011;51351;51.450;6.614;2023-07-28T00:07:05;4.57;;;2.78;;
64871;SDS011;51351;51.450;6.614;2023-07-28T00:09:31;4.63;;;1.98;;
64871;SDS011;51351;51.450;6.614;2023-07-28T00:11:58;4.65;;;2.30;;
64871;SDS011;51351;51.450;6.614;2023-07-28T00:14:24;3.75;;;2.65;;
64871;SDS011;51351;51.450;6.614;2023-07-28T00:16:52;3.63;;;2.65;;
64871;SDS011;51351;51.450;6.614;2023-07-28T00:19:21;2.95;;;2.13;;
64871;SDS011;51351;51.450;6.614;2023-07-28T00:21:48;3.33;;;2.15;;
64871;SDS011;51351;51.450;6.614;2023-07-28T00:24:14;4.63;;;2.17;;
64871;SDS011;51351;51.450;6.614;2023-07-28T00:26:41;4.43;;;2.25;;
64871;SDS011;51351;51.450;6.614;2023-07-28T00:29:07;7.68;;;3.30;;
64871;SDS011;51351;51.450;6.614;2023-07-28T00:31:34;3.65;;;2.35;;
64871;SDS011;51351;51.450;6.614;2023-07-28T00:34:01;5.38;;;2.60;;
64871;SDS011;51351;51.450;6.614;2023-07-28T00:36:29;4.50;;;2.83;;
64871;SDS011;51351;51.450;6.614;2023-07-28T00:38:56;4.07;;;2.03;;
64871;SDS011;51351;51.450;6.614;2023-07-28T00:41:23;6.35;;;2.17;;
64871;SDS011;51351;51.450;6.614;2023-07-28T00:43:49;2.95;;;2.13;;
64871;SDS011;51351;51.450;6.614;2023-07-28T00:46:15;4.53;;;2.35;;
64871;SDS011;51351;51.450;6.614;2023-07-28T00:48:41;4.97;;;2.38;;
64871;SDS011;51351;51.450;6.614;2023-07-28T00:51:09;5.47;;;3.15;;
64871;SDS011;51351;51.450;6.614;2023-07-28T00:53:35;6.55;;;2.45;;
64871;SDS011;51351;51.450;6.614;2023-07-28T00:56:04;7.05;;;2.40;;
64871;SDS011;51351;51.450;6.614;2023-07-28T00:58:31;4.60;;;2.97;;
64871;SDS011;51351;51.450;6.614;2023-07-28T01:00:57;4.13;;;2.25;;
64871;SDS011;51351;51.450;6.614;2023-07-28T01:03:24;6.38;;;2.70;;
64871;SDS011;51351;51.450;6.614;2023-07-28T01:08:49;4.00;;;2.67;;
64871;SDS011;51351;51.450;6.614;2023-07-28T01:11:22;3.35;;;2.17;;
64871;SDS011;51351;51.450;6.614;2023-07-28T01:13:48;5.72;;;3.45;;
64871;SDS011;51351;51.450;6.614;2023-07-28T01:16:14;4.20;;;2.78;;
64871;SDS011;51351;51.450;6.614;2023-07-28T01:21:08;4.03;;;2.60;;
64871;SDS011;51351;51.450;6.614;2023-07-28T01:26:09;8.75;;;3.00;;
64871;SDS011;51351;51.450;6.614;2023-07-28T01:28:37;3.92;;;2.50;;
64871;SDS011;51351;51.450;6.614;2023-07-28T01:31:06;3.78;;;2.83;;
64871;SDS011;51351;51.450;6.614;2023-07-28T01:33:33;10.07;;;3.20;;
64871;SDS011;51351;51.450;6.614;2023-07-28T01:38:28;4.43;;;2.90;;
64871;SDS011;51351;51.450;6.614;2023-07-28T01:40:54;4.43;;;2.83;;
64871;SDS011;51351;51.450;6.614;2023-07-28T01:43:20;3.70;;;2.42;;
64871;SDS011;51351;51.450;6.614;2023-07-28T01:45:46;4.68;;;3.03;;
64871;SDS011;51351;51.450;6.614;2023-07-28T01:48:12;3.20;;;2.22;;
64871;SDS011;51351;51.450;6.614;2023-07-28T01:50:38;6.15;;;3.28;;
64871;SDS011;51351;51.450;6.614;2023-07-28T01:53:05;6.40;;;2.70;;
64871;SDS011;51351;51.450;6.614;2023-07-28T01:55:32;4.70;;;2.78;;
64871;SDS011;51351;51.450;6.614;2023-07-28T01:57:59;5.70;;;2.80;;
64871;SDS011;51351;51.450;6.614;2023-07-28T02:00:26;4.07;;;2.00;;
64871;SDS011;51351;51.450;6.614;2023-07-28T02:05:19;3.50;;;2.60;;
64871;SDS011;51351;51.450;6.614;2023-07-28T02:07:46;3.30;;;2.40;;
64871;SDS011;51351;51.450;6.614;2023-07-28T02:12:38;5.90;;;3.35;;
64871;SDS011;51351;51.450;6.614;2023-07-28T02:15:05;3.15;;;2.25;;
64871;SDS011;51351;51.450;6.614;2023-07-28T02:17:32;3.40;;;2.35;;
64871;SDS011;51351;51.450;6.614;2023-07-28T02:19:58;3.40;;;2.38;;
64871;SDS011;51351;51.450;6.614;2023-07-28T02:22:24;4.10;;;3.03;;
64871;SDS011;51351;51.450;6.614;2023-07-28T02:24:50;3.50;;;2.60;;
64871;SDS011;51351;51.450;6.614;2023-07-28T02:27:16;3.75;;;2.42;;
64871;SDS011;51351;51.450;6.614;2023-07-28T02:29:42;3.75;;;3.00;;
64871;SDS011;51351;51.450;6.614;2023-07-28T02:32:08;3.20;;;2.67;;
64871;SDS011;51351;51.450;6.614;2023-07-28T02:37:00;4.03;;;2.58;;
64871;SDS011;51351;51.450;6.614;2023-07-28T02:39:26;3.67;;;2.35;;
64871;SDS011;51351;51.450;6.614;2023-07-28T02:41:52;3.90;;;2.67;;
64871;SDS011;51351;51.450;6.614;2023-07-28T02:44:18;5.05;;;2.45;;
64871;SDS011;51351;51.450;6.614;2023-07-28T02:46:44;4.55;;;2.85;;
64871;SDS011;51351;51.450;6.614;2023-07-28T02:49:10;3.95;;;2.92;;
64871;SDS011;51351;51.450;6.614;2023-07-28T02:51:36;4.15;;;2.72;;
64871;SDS011;51351;51.450;6.614;2023-07-28T02:54:02;3.65;;;3.00;;
64871;SDS011;51351;51.450;6.614;2023-07-28T02:56:29;4.35;;;2.80;;
64871;SDS011;51351;51.450;6.614;2023-07-28T02:59:00;4.00;;;2.83;;
64871;SDS011;51351;51.450;6.614;2023-07-28T03:01:29;3.78;;;2.53;;
64871;SDS011;51351;51.450;6.614;2023-07-28T03:04:02;5.72;;;2.70;;
64871;SDS011;51351;51.450;6.614;2023-07-28T03:06:34;5.63;;;2.80;;
64871;SDS011;51351;51.450;6.614;2023-07-28T03:09:00;5.60;;;2.35;;
64871;SDS011;51351;51.450;6.614;2023-07-28T03:11:46;7.68;;;3.45;;
64871;SDS011;51351;51.450;6.614;2023-07-28T03:14:12;3.72;;;2.33;;
64871;SDS011;51351;51.450;6.614;2023-07-28T03:16:38;3.80;;;2.67;;
64871;SDS011;51351;51.450;6.614;2023-07-28T03:19:05;5.35;;;3.00;;
64871;SDS011;51351;51.450;6.614;2023-07-28T03:21:31;4.85;;;2.40;;
64871;SDS011;51351;51.450;6.614;2023-07-28T03:23:58;7.47;;;2.63;;
64871;SDS011;51351;51.450;6.614;2023-07-28T03:26:24;3.90;;;2.17;;
64871;SDS011;51351;51.450;6.614;2023-07-28T03:28:50;4.10;;;2.55;;
64871;SDS011;51351;51.450;6.614;2023-07-28T03:31:16;5.07;;;3.20;;
64871;SDS011;51351;51.450;6.614;2023-07-28T03:33:43;4.13;;;2.17;;
64871;SDS011;51351;51.450;6.614;2023-07-28T03:36:09;3.78;;;2.13;;
64871;SDS011;51351;51.450;6.614;2023-07-28T03:38:36;4.63;;;2.72;;
64871;SDS011;51351;51.450;6.614;2023-07-28T03:41:04;5.55;;;2.42;;
64871;SDS011;51351;51.450;6.614;2023-07-28T03:43:30;4.93;;;2.70;;
64871;SDS011;51351;51.450;6.614;2023-07-28T03:45:56;4.65;;;2.60;;
64871;SDS011;51351;51.450;6.614;2023-07-28T03:48:22;3.35;;;1.88;;
64871;SDS011;51351;51.450;6.614;2023-07-28T03:50:48;6.10;;;2.80;;
64871;SDS011;51351;51.450;6.614;2023-07-28T03:53:14;2.95;;;2.15;;
64871;SDS011;51351;51.450;6.614;2023-07-28T03:55:40;5.22;;;2.22;;
64871;SDS011;51351;51.450;6.614;2023-07-28T03:58:06;4.97;;;2.20;;
64871;SDS011;51351;51.450;6.614;2023-07-28T04:00:32;4.68;;;2.70;;
64871;SDS011;51351;51.450;6.614;2023-07-28T04:05:24;3.15;;;2.03;;
64871;SDS011;51351;51.450;6.614;2023-07-28T04:07:50;3.80;;;1.80;;
64871;SDS011;51351;51.450;6.614;2023-07-28T04:10:16;3.45;;;2.10;;
64871;SDS011;51351;51.450;6.614;2023-07-28T04:12:42;3.72;;;2.13;;
64871;SDS011;51351;51.450;6.614;2023-07-28T04:15:08;6.93;;;2.17;;
64871;SDS011;51351;51.450;6.614;2023-07-28T04:17:35;3.05;;;2.10;;
64871;SDS011;51351;51.450;6.614;2023-07-28T04:20:01;5.53;;;2.55;;
64871;SDS011;51351;51.450;6.614;2023-07-28T04:22:27;3.17;;;2.17;;
64871;SDS011;51351;51.450;6.614;2023-07-28T04:24:54;5.45;;;2.25;;
64871;SDS011;51351;51.450;6.614;2023-07-28T04:27:20;3.13;;;2.10;;
64871;SDS011;51351;51.450;6.614;2023-07-28T04:29:47;6.03;;;2.50;;
64871;SDS011;51351;51.450;6.614;2023-07-28T04:32:18;3.35;;;1.63;;
64871;SDS011;51351;51.450;6.614;2023-07-28T04:34:45;4.57;;;2.33;;
64871;SDS011;51351;51.450;6.614;2023-07-28T04:37:13;3.65;;;2.30;;
64871;SDS011;51351;51.450;6.614;2023-07-28T04:39:54;2.47;;;1.58;;
64871;SDS011;51351;51.450;6.614;2023-07-28T04:42:20;2.40;;;1.40;;
64871;SDS011;51351;51.450;6.614;2023-07-28T04:44:47;3.17;;;1.73;;
64871;SDS011;51351;51.450;6.614;2023-07-28T04:47:14;4.15;;;1.90;;
64871;SDS011;51351;51.450;6.614;2023-07-28T04:49:41;3.15;;;2.03;;
64871;SDS011;51351;51.450;6.614;2023-07-28T04:52:07;3.10;;;2.25;;
64871;SDS011;51351;51.450;6.614;2023-07-28T04:54:50;5.60;;;1.73;;
64871;SDS011;51351;51.450;6.614;2023-07-28T04:57:16;2.92;;;1.70;;
64871;SDS011;51351;51.450;6.614;2023-07-28T04:59:45;3.65;;;1.88;;
64871;SDS011;51351;51.450;6.614;2023-07-28T05:02:11;3.33;;;1.90;;
64871;SDS011;51351;51.450;6.614;2023-07-28T05:04:37;2.88;;;1.65;;
64871;SDS011;51351;51.450;6.614;2023-07-28T05:07:03;3.20;;;2.00;;
64871;SDS011;51351;51.450;6.614;2023-07-28T05:09:30;3.85;;;1.98;;
64871;SDS011;51351;51.450;6.614;2023-07-28T05:14:23;4.20;;;1.83;;
64871;SDS011;51351;51.450;6.614;2023-07-28T05:16:49;3.55;;;1.83;;
64871;SDS011;51351;51.450;6.614;2023-07-28T05:19:32;2.72;;;1.77;;
64871;SDS011;51351;51.450;6.614;2023-07-28T05:22:01;2.45;;;1.52;;
64871;SDS011;51351;51.450;6.614;2023-07-28T05:24:37;2.60;;;1.42;;
64871;SDS011;51351;51.450;6.614;2023-07-28T05:27:03;1.70;;;1.42;;
64871;SDS011;51351;51.450;6.614;2023-07-28T05:32:01;3.60;;;1.75;;
64871;SDS011;51351;51.450;6.614;2023-07-28T05:34:34;4.78;;;1.90;;
64871;SDS011;51351;51.450;6.614;2023-07-28T05:37:00;3.20;;;1.75;;
64871;SDS011;51351;51.450;6.614;2023-07-28T05:39:30;5.07;;;1.88;;
64871;SDS011;51351;51.450;6.614;2023-07-28T05:41:56;3.63;;;1.83;;
64871;SDS011;51351;51.450;6.614;2023-07-28T05:44:22;5.47;;;2.03;;
64871;SDS011;51351;51.450;6.614;2023-07-28T05:46:48;5.90;;;2.22;;
64871;SDS011;51351;51.450;6.614;2023-07-28T05:49:15;4.93;;;2.13;;
64871;SDS011;51351;51.450;6.614;2023-07-28T05:51:42;4.35;;;2.53;;
64871;SDS011;51351;51.450;6.614;2023-07-28T05:54:11;6.03;;;2.85;;
64871;SDS011;51351;51.450;6.614;2023-07-28T05:56:40;4.07;;;2.35;;
64871;SDS011;51351;51.450;6.614;2023-07-28T05:59:07;5.05;;;2.95;;
64871;SDS011;51351;51.450;6.614;2023-07-28T06:01:33;6.57;;;2.72;;
64871;SDS011;51351;51.450;6.614;2023-07-28T06:04:22;4.55;;;3.22;;
64871;SDS011;51351;51.450;6.614;2023-07-28T06:06:51;5.65;;;3.08;;
64871;SDS011;51351;51.450;6.614;2023-07-28T06:09:17;5.47;;;3.50;;
64871;SDS011;51351;51.450;6.614;2023-07-28T06:11:44;5.03;;;2.72;;
64871;SDS011;51351;51.450;6.614;2023-07-28T06:14:10;5.07;;;3.38;;
64871;SDS011;51351;51.450;6.614;2023-07-28T06:16:37;5.25;;;2.50;;
64871;SDS011;51351;51.450;6.614;2023-07-28T06:19:03;3.97;;;2.60;;
64871;SDS011;51351;51.450;6.614;2023-07-28T06:21:30;5.35;;;2.97;;
64871;SDS011;51351;51.450;6.614;2023-07-28T06:23:56;5.13;;;3.17;;
64871;SDS011;51351;51.450;6.614;2023-07-28T06:28:49;5.32;;;3.35;;
64871;SDS011;51351;51.450;6.614;2023-07-28T06:31:16;5.85;;;3.25;;
64871;SDS011;51351;51.450;6.614;2023-07-28T06:33:42;5.28;;;2.97;;
64871;SDS011;51351;51.450;6.614;2023-07-28T06:36:08;7.03;;;3.30;;
64871;SDS011;51351;51.450;6.614;2023-07-28T06:38:34;5.90;;;3.00;;
64871;SDS011;51351;51.450;6.614;2023-07-28T06:41:00;4.90;;;3.13;;
64871;SDS011;51351;51.450;6.614;2023-07-28T06:43:26;7.78;;;3.42;;
64871;SDS011;51351;51.450;6.614;2023-07-28T06:45:54;5.45;;;3.38;;
64871;SDS011;51351;51.450;6.614;2023-07-28T06:48:20;7.40;;;3.90;;
64871;SDS011;51351;51.450;6.614;2023-07-28T06:50:46;5.82;;;3.42;;
64871;SDS011;51351;51.450;6.614;2023-07-28T06:53:12;6.60;;;4.30;;
64871;SDS011;51351;51.450;6.614;2023-07-28T06:55:38;7.97;;;4.25;;
64871;SDS011;51351;51.450;6.614;2023-07-28T06:58:05;7.57;;;4.32;;
64871;SDS011;51351;51.450;6.614;2023-07-28T07:00:32;6.20;;;3.88;;
64871;SDS011;51351;51.450;6.614;2023-07-28T07:02:59;9.70;;;4.47;;
64871;SDS011;51351;51.450;6.614;2023-07-28T07:05:26;8.95;;;5.22;;
64871;SDS011;51351;51.450;6.614;2023-07-28T07:07:52;8.90;;;4.22;;
64871;SDS011;51351;51.450;6.614;2023-07-28T07:10:18;8.70;;;4.95;;
64871;SDS011;51351;51.450;6.614;2023-07-28T07:12:44;8.73;;;5.35;;
64871;SDS011;51351;51.450;6.614;2023-07-28T07:15:10;9.60;;;5.15;;
64871;SDS011;51351;51.450;6.614;2023-07-28T07:17:37;10.68;;;5.57;;
64871;SDS011;51351;51.450;6.614;2023-07-28T07:20:03;9.63;;;5.53;;
64871;SDS011;51351;51.450;6.614;2023-07-28T07:22:31;9.25;;;5.13;;
64871;SDS011;51351;51.450;6.614;2023-07-28T07:24:57;8.73;;;5.35;;
64871;SDS011;51351;51.450;6.614;2023-07-28T07:27:23;11.77;;;5.85;;
64871;SDS011;51351;51.450;6.614;2023-07-28T07:29:50;10.60;;;5.75;;
64871;SDS011;51351;51.450;6.614;2023-07-28T07:32:17;7.35;;;5.20;;
64871;SDS011;51351;51.450;6.614;2023-07-28T07:34:43;12.00;;;5.68;;
64871;SDS011;51351;51.450;6.614;2023-07-28T07:37:09;9.05;;;5.38;;
64871;SDS011;51351;51.450;6.614;2023-07-28T07:39:35;9.20;;;5.00;;
64871;SDS011;51351;51.450;6.614;2023-07-28T07:42:02;13.10;;;4.78;;
64871;SDS011;51351;51.450;6.614;2023-07-28T07:44:28;8.98;;;5.60;;
64871;SDS011;51351;51.450;6.614;2023-07-28T07:46:55;8.35;;;5.18;;
64871;SDS011;51351;51.450;6.614;2023-07-28T07:49:21;7.10;;;4.05;;
64871;SDS011;51351;51.450;6.614;2023-07-28T07:51:48;6.13;;;4.07;;
64871;SDS011;51351;51.450;6.614;2023-07-28T07:54:14;7.32;;;4.13;;
64871;SDS011;51351;51.450;6.614;2023-07-28T07:56:44;7.13;;;4.35;;
64871;SDS011;51351;51.450;6.614;2023-07-28T07:59:12;6.88;;;3.75;;
64871;SDS011;51351;51.450;6.614;2023-07-28T08:01:39;6.03;;;3.47;;
64871;SDS011;51351;51.450;6.614;2023-07-28T08:04:05;4.75;;;3.35;;
64871;SDS011;51351;51.450;6.614;2023-07-28T08:06:31;5.85;;;3.13;;
64871;SDS011;51351;51.450;6.614;2023-07-28T08:08:57;3.80;;;3.08;;
64871;SDS011;51351;51.450;6.614;2023-07-28T08:11:25;3.47;;;2.65;;
64871;SDS011;51351;51.450;6.614;2023-07-28T08:13:51;2.10;;;1.70;;
64871;SDS011;51351;51.450;6.614;2023-07-28T08:16:17;3.42;;;2.42;;
64871;SDS011;51351;51.450;6.614;2023-07-28T08:18:43;1.95;;;1.42;;
64871;SDS011;51351;51.450;6.614;2023-07-28T08:21:09;2.10;;;1.63;;
64871;SDS011;51351;51.450;6.614;2023-07-28T08:23:35;3.22;;;1.80;;
64871;SDS011;51351;51.450;6.614;2023-07-28T08:26:01;1.83;;;1.33;;
64871;SDS011;51351;51.450;6.614;2023-07-28T08:28:27;3.13;;;1.83;;
64871;SDS011;51351;51.450;6.614;2023-07-28T08:30:54;2.20;;;1.50;;
64871;SDS011;51351;51.450;6.614;2023-07-28T08:33:22;1.55;;;1.20;;
64871;SDS011;51351;51.450;6.614;2023-07-28T08:35:48;2.13;;;1.38;;
64871;SDS011;51351;51.450;6.614;2023-07-28T08:38:14;1.83;;;1.38;;
64871;SDS011;51351;51.450;6.614;2023-07-28T08:40:40;2.17;;;1.30;;
64871;SDS011;51351;51.450;6.614;2023-07-28T08:43:06;3.00;;;1.45;;
64871;SDS011;51351;51.450;6.614;2023-07-28T08:45:32;2.35;;;1.63;;
64871;SDS011;51351;51.450;6.614;2023-07-28T08:47:58;1.70;;;1.35;;
64871;SDS011;51351;51.450;6.614;2023-07-28T08:50:24;2.70;;;1.23;;
64871;SDS011;51351;51.450;6.614;2023-07-28T08:52:50;2.88;;;2.30;;
64871;SDS011;51351;51.450;6.614;2023-07-28T08:57:42;2.45;;;1.42;;
64871;SDS011;51351;51.450;6.614;2023-07-28T09:00:09;2.35;;;1.20;;
64871;SDS011;51351;51.450;6.614;2023-07-28T09:02:40;2.67;;;1.38;;
64871;SDS011;51351;51.450;6.614;2023-07-28T09:05:06;2.95;;;1.77;;
64871;SDS011;51351;51.450;6.614;2023-07-28T09:07:42;2.22;;;1.50;;
64871;SDS011;51351;51.450;6.614;2023-07-28T09:10:08;2.33;;;1.88;;
64871;SDS011;51351;51.450;6.614;2023-07-28T09:15:09;3.08;;;2.00;;
64871;SDS011;51351;51.450;6.614;2023-07-28T09:17:40;3.67;;;2.20;;
64871;SDS011;51351;51.450;6.614;2023-07-28T09:20:08;4.20;;;2.75;;
64871;SDS011;51351;51.450;6.614;2023-07-28T09:22:39;5.85;;;2.75;;
64871;SDS011;51351;51.450;6.614;2023-07-28T09:25:12;4.90;;;2.85;;
64871;SDS011;51351;51.450;6.614;2023-07-28T09:27:40;3.75;;;2.65;;
64871;SDS011;51351;51.450;6.614;2023-07-28T09:30:07;3.35;;;2.65;;
64871;SDS011;51351;51.450;6.614;2023-07-28T09:32:33;2.80;;;2.33;;
64871;SDS011;51351;51.450;6.614;2023-07-28T09:35:11;4.28;;;2.40;;
64871;SDS011;51351;51.450;6.614;2023-07-28T09:37:39;3.83;;;2.60;;
64871;SDS011;51351;51.450;6.614;2023-07-28T09:40:10;4.13;;;2.50;;
64871;SDS011;51351;51.450;6.614;2023-07-28T09:42:41;4.05;;;2.70;;
64871;SDS011;51351;51.450;6.614;2023-07-28T09:45:08;3.08;;;2.60;;
64871;SDS011;51351;51.450;6.614;2023-07-28T09:47:36;3.33;;;2.50;;
64871;SDS011;51351;51.450;6.614;2023-07-28T09:50:04;6.53;;;2.90;;
64871;SDS011;51351;51.450;6.614;2023-07-28T09:52:33;2.60;;;2.20;;
64871;SDS011;51351;51.450;6.614;2023-07-28T09:55:06;3.25;;;2.58;;
64871;SDS011;51351;51.450;6.614;2023-07-28T09:57:45;2.75;;;2.20;;
64871;SDS011;51351;51.450;6.614;2023-07-28T10:00:15;5.25;;;2.53;;
64871;SDS011;51351;51.450;6.614;2023-07-28T10:02:43;3.70;;;2.13;;
64871;SDS011;51351;51.450;6.614;2023-07-28T10:05:10;5.35;;;2.40;;
64871;SDS011;51351;51.450;6.614;2023-07-28T10:07:40;6.30;;;2.53;;
64871;SDS011;51351;51.450;6.614;2023-07-28T10:10:08;3.42;;;1.85;;
64871;SDS011;51351;51.450;6.614;2023-07-28T10:12:39;5.55;;;2.20;;
64871;SDS011;51351;51.450;6.614;2023-07-28T10:15:15;2.60;;;1.90;;
64871;SDS011;51351;51.450;6.614;2023-07-28T10:17:43;3.10;;;2.20;;
64871;SDS011;51351;51.450;6.614;2023-07-28T10:20:29;3.85;;;3.05;;
64871;SDS011;51351;51.450;6.614;2023-07-28T10:23:06;3.30;;;1.77;;
64871;SDS011;51351;51.450;6.614;2023-07-28T10:25:39;2.40;;;1.92;;
64871;SDS011;51351;51.450;6.614;2023-07-28T10:28:26;2.92;;;1.45;;
64871;SDS011;51351;51.450;6.614;2023-07-28T10:30:57;4.00;;;1.50;;
64871;SDS011;51351;51.450;6.614;2023-07-28T10:33:28;2.75;;;1.60;;
64871;SDS011;51351;51.450;6.614;2023-07-28T10:38:43;2.13;;;1.70;;
64871;SDS011;51351;51.450;6.614;2023-07-28T10:41:16;1.77;;;1.35;;
64871;SDS011;51351;51.450;6.614;2023-07-28T10:43:44;2.30;;;1.33;;
64871;SDS011;51351;51.450;6.614;2023-07-28T10:46:14;1.63;;;1.20;;
64871;SDS011;51351;51.450;6.614;2023-07-28T10:48:42;2.92;;;1.40;;
64871;SDS011;51351;51.450;6.614;2023-07-28T10:51:10;2.05;;;1.55;;
64871;SDS011;51351;51.450;6.614;2023-07-28T10:53:37;3.33;;;1.73;;
64871;SDS011;51351;51.450;6.614;2023-07-28T10:56:04;2.05;;;1.30;;
64871;SDS011;51351;51.450;6.614;2023-07-28T10:58:34;3.10;;;1.52;;
64871;SDS011;51351;51.450;6.614;2023-07-28T11:01:01;3.58;;;1.60;;
64871;SDS011;51351;51.450;6.614;2023-07-28T11:03:28;2.70;;;1.63;;
64871;SDS011;51351;51.450;6.614;2023-07-28T11:05:54;2.55;;;1.65;;
64871;SDS011;51351;51.450;6.614;2023-07-28T11:08:22;3.70;;;1.30;;
64871;SDS011;51351;51.450;6.614;2023-07-28T11:10:48;1.45;;;1.35;;
64871;SDS011;51351;51.450;6.614;2023-07-28T11:13:14;1.83;;;1.25;;
64871;SDS011;51351;51.450;6.614;2023-07-28T11:15:40;1.52;;;1.00;;
64871;SDS011;51351;51.450;6.614;2023-07-28T11:20:32;1.50;;;0.93;;
64871;SDS011;51351;51.450;6.614;2023-07-28T11:22:59;0.93;;;0.80;;
64871;SDS011;51351;51.450;6.614;2023-07-28T11:25:30;3.22;;;0.70;;
64871;SDS011;51351;51.450;6.614;2023-07-28T11:27:57;0.75;;;0.50;;
64871;SDS011;51351;51.450;6.614;2023-07-28T11:30:26;1.33;;;0.43;;
64871;SDS011;51351;51.450;6.614;2023-07-28T11:32:53;0.70;;;0.40;;
64871;SDS011;51351;51.450;6.614;2023-07-28T11:37:46;0.75;;;0.50;;
64871;SDS011;51351;51.450;6.614;2023-07-28T11:40:14;0.65;;;0.43;;
64871;SDS011;51351;51.450;6.614;2023-07-28T11:42:49;1.30;;;0.55;;
64871;SDS011;51351;51.450;6.614;2023-07-28T11:45:18;0.73;;;0.50;;
64871;SDS011;51351;51.450;6.614;2023-07-28T11:50:27;0.40;;;0.30;;
64871;SDS011;51351;51.450;6.614;2023-07-28T11:53:00;0.45;;;0.45;;
64871;SDS011;51351;51.450;6.614;2023-07-28T11:57:54;3.80;;;0.50;;
64871;SDS011;51351;51.450;6.614;2023-07-28T12:00:29;0.65;;;0.50;;
64871;SDS011;51351;51.450;6.614;2023-07-28T12:03:11;1.55;;;0.50;;
64871;SDS011;51351;51.450;6.614;2023-07-28T12:05:38;0.47;;;0.40;;
64871;SDS011;51351;51.450;6.614;2023-07-28T12:08:05;1.35;;;0.40;;
64871;SDS011;51351;51.450;6.614;2023-07-28T12:10:35;1.42;;;0.45;;
64871;SDS011;51351;51.450;6.614;2023-07-28T12:13:05;0.30;;;0.30;;
64871;SDS011;51351;51.450;6.614;2023-07-28T12:15:32;0.57;;;0.55;;
64871;SDS011;51351;51.450;6.614;2023-07-28T12:18:01;0.47;;;0.32;;
64871;SDS011;51351;51.450;6.614;2023-07-28T12:20:32;0.80;;;0.70;;
64871;SDS011;51351;51.450;6.614;2023-07-28T12:22:59;0.73;;;0.45;;
64871;SDS011;51351;51.450;6.614;2023-07-28T12:27:51;1.58;;;0.50;;
64871;SDS011;51351;51.450;6.614;2023-07-28T12:32:44;0.50;;;0.50;;
64871;SDS011;51351;51.450;6.614;2023-07-28T12:35:10;0.63;;;0.47;;
64871;SDS011;51351;51.450;6.614;2023-07-28T12:40:01;1.02;;;0.55;;
64871;SDS011;51351;51.450;6.614;2023-07-28T12:42:28;1.35;;;0.60;;
64871;SDS011;51351;51.450;6.614;2023-07-28T12:47:20;1.15;;;0.50;;
64871;SDS011;51351;51.450;6.614;2023-07-28T12:52:12;1.15;;;0.40;;
64871;SDS011;51351;51.450;6.614;2023-07-28T12:57:05;0.80;;;0.63;;
64871;SDS011;51351;51.450;6.614;2023-07-28T12:59:32;0.55;;;0.47;;
64871;SDS011;51351;51.450;6.614;2023-07-28T13:04:24;0.63;;;0.55;;
64871;SDS011;51351;51.450;6.614;2023-07-28T13:09:16;0.65;;;0.60;;
64871;SDS011;51351;51.450;6.614;2023-07-28T13:14:08;0.70;;;0.40;;
64871;SDS011;51351;51.450;6.614;2023-07-28T13:19:01;0.47;;;0.32;;
64871;SDS011;51351;51.450;6.614;2023-07-28T13:23:53;3.63;;;0.50;;
64871;SDS011;51351;51.450;6.614;2023-07-28T13:28:45;1.50;;;0.50;;
64871;SDS011;51351;51.450;6.614;2023-07-28T13:31:12;0.90;;;0.70;;
64871;SDS011;51351;51.450;6.614;2023-07-28T13:33:39;1.30;;;0.47;;
64871;SDS011;51351;51.450;6.614;2023-07-28T13:38:33;0.55;;;0.40;;
64871;SDS011;51351;51.450;6.614;2023-07-28T13:41:00;2.22;;;0.52;;
64871;SDS011;51351;51.450;6.614;2023-07-28T13:43:26;0.75;;;0.40;;
64871;SDS011;51351;51.450;6.614;2023-07-28T13:48:18;0.70;;;0.52;;
64871;SDS011;51351;51.450;6.614;2023-07-28T13:50:44;1.55;;;0.90;;
64871;SDS011;51351;51.450;6.614;2023-07-28T13:55:36;1.17;;;0.52;;
64871;SDS011;51351;51.450;6.614;2023-07-28T14:00:28;0.73;;;0.50;;
64871;SDS011;51351;51.450;6.614;2023-07-28T14:05:20;1.52;;;0.50;;
64871;SDS011;51351;51.450;6.614;2023-07-28T14:07:48;0.65;;;0.50;;
64871;SDS011;51351;51.450;6.614;2023-07-28T14:12:40;0.82;;;0.63;;
64871;SDS011;51351;51.450;6.614;2023-07-28T14:17:33;2.05;;;0.70;;
64871;SDS011;51351;51.450;6.614;2023-07-28T14:19:59;0.98;;;0.88;;
64871;SDS011;51351;51.450;6.614;2023-07-28T14:24:50;1.23;;;0.70;;
64871;SDS011;51351;51.450;6.614;2023-07-28T14:29:42;1.42;;;1.00;;
64871;SDS011;51351;51.450;6.614;2023-07-28T14:34:34;2.10;;;1.20;;
64871;SDS011;51351;51.450;6.614;2023-07-28T14:37:03;1.80;;;1.10;;
64871;SDS011;51351;51.450;6.614;2023-07-28T14:39:32;1.23;;;0.57;;
64871;SDS011;51351;51.450;6.614;2023-07-28T14:41:59;1.50;;;0.90;;
64871;SDS011;51351;51.450;6.614;2023-07-28T14:44:25;2.40;;;0.98;;
64871;SDS011;51351;51.450;6.614;2023-07-28T14:46:51;1.50;;;0.68;;
64871;SDS011;51351;51.450;6.614;2023-07-28T14:49:17;2.50;;;0.65;;
64871;SDS011;51351;51.450;6.614;2023-07-28T14:51:43;1.58;;;0.57;;
64871;SDS011;51351;51.450;6.614;2023-07-28T14:54:09;0.75;;;0.52;;
64871;SDS011;51351;51.450;6.614;2023-07-28T14:56:35;1.35;;;0.57;;
64871;SDS011;51351;51.450;6.614;2023-07-28T14:59:01;1.40;;;0.63;;
64871;SDS011;51351;51.450;6.614;2023-07-28T15:01:28;2.67;;;0.70;;
64871;SDS011;51351;51.450;6.614;2023-07-28T15:03:54;1.23;;;0.57;;
64871;SDS011;51351;51.450;6.614;2023-07-28T15:06:20;1.48;;;0.80;;
64871;SDS011;51351;51.450;6.614;2023-07-28T15:08:46;4.80;;;1.10;;
64871;SDS011;51351;51.450;6.614;2023-07-28T15:11:13;1.67;;;0.70;;
64871;SDS011;51351;51.450;6.614;2023-07-28T15:13:39;0.73;;;0.63;;
64871;SDS011;51351;51.450;6.614;2023-07-28T15:18:31;1.17;;;0.77;;
64871;SDS011;51351;51.450;6.614;2023-07-28T15:20:57;0.98;;;0.85;;
64871;SDS011;51351;51.450;6.614;2023-07-28T15:23:25;0.93;;;0.65;;
64871;SDS011;51351;51.450;6.614;2023-07-28T15:25:52;1.23;;;0.80;;
64871;SDS011;51351;51.450;6.614;2023-07-28T15:28:25;2.75;;;0.70;;
64871;SDS011;51351;51.450;6.614;2023-07-28T15:30:51;1.27;;;0.80;;
64871;SDS011;51351;51.450;6.614;2023-07-28T15:33:18;2.58;;;1.00;;
64871;SDS011;51351;51.450;6.614;2023-07-28T15:35:46;2.00;;;1.00;;
64871;SDS011;51351;51.450;6.614;2023-07-28T15:38:14;3.05;;;0.73;;
64871;SDS011;51351;51.450;6.614;2023-07-28T15:40:40;0.80;;;0.68;;
64871;SDS011;51351;51.450;6.614;2023-07-28T15:43:06;0.88;;;0.55;;
64871;SDS011;51351;51.450;6.614;2023-07-28T15:47:59;0.90;;;0.80;;
64871;SDS011;51351;51.450;6.614;2023-07-28T15:50:25;0.70;;;0.52;;
64871;SDS011;51351;51.450;6.614;2023-07-28T15:52:51;1.02;;;0.77;;
64871;SDS011;51351;51.450;6.614;2023-07-28T15:55:19;1.33;;;0.95;;
64871;SDS011;51351;51.450;6.614;2023-07-28T16:00:11;0.85;;;0.63;;
64871;SDS011;51351;51.450;6.614;2023-07-28T16:02:40;1.60;;;1.20;;
64871;SDS011;51351;51.450;6.614;2023-07-28T16:05:06;1.33;;;1.02;;
64871;SDS011;51351;51.450;6.614;2023-07-28T16:07:33;2.65;;;1.15;;
64871;SDS011;51351;51.450;6.614;2023-07-28T16:12:25;1.10;;;0.88;;
64871;SDS011;51351;51.450;6.614;2023-07-28T16:14:52;2.70;;;0.98;;
64871;SDS011;51351;51.450;6.614;2023-07-28T16:17:19;1.45;;;1.17;;
64871;SDS011;51351;51.450;6.614;2023-07-28T16:19:46;1.75;;;1.30;;
64871;SDS011;51351;51.450;6.614;2023-07-28T16:22:12;1.60;;;1.10;;
64871;SDS011;51351;51.450;6.614;2023-07-28T16:24:39;2.00;;;1.50;;
64871;SDS011;51351;51.450;6.614;2023-07-28T16:27:05;1.65;;;1.15;;
64871;SDS011;51351;51.450;6.614;2023-07-28T16:31:57;1.40;;;0.80;;
64871;SDS011;51351;51.450;6.614;2023-07-28T16:34:23;2.67;;;0.98;;
64871;SDS011;51351;51.450;6.614;2023-07-28T16:36:49;2.08;;;1.20;;
64871;SDS011;51351;51.450;6.614;2023-07-28T16:39:15;1.35;;;1.00;;
64871;SDS011;51351;51.450;6.614;2023-07-28T16:41:41;1.55;;;1.20;;